sensor_id;sensor_type;location;lat;lon;timestamp;pressure;altitude;pressure_sealevel;temperature;humidity
27146;BME280;17980;51.744;7.190;2023-06-26T00:02:22;100808.42;;;38.24;46.86
27146;BME280;17980;51.744;7.190;2023-06-26T00:07:27;100806.41;;;37.89;48.04
27146;BME280;17980;51.744;7.190;2023-06-26T00:12:33;100801.61;;;37.87;48.16
27146;BME280;17980;51.744;7.190;2023-06-26T00:17:38;100802.81;;;37.66;48.78
27146;BME280;17980;51.744;7.190;2023-06-26T00:20:08;100801.31;;;37.31;49.16
27146;BME280;17980;51.744;7.190;2023-06-26T00:22:36;100798.16;;;36.70;50.34
27146;BME280;17980;51.744;7.190;2023-06-26T00:27:42;100796.30;;;37.37;49.25
27146;BME280;17980;51.744;7.190;2023-06-26T00:32:48;100793.11;;;37.30;49.26
27146;BME280;17980;51.744;7.190;2023-06-26T00:37:53;100791.38;;;37.00;49.79
27146;BME280;17980;51.744;7.190;2023-06-26T00:40:20;100787.02;;;36.94;49.97
27146;BME280;17980;51.744;7.190;2023-06-26T00:42:48;100786.05;;;37.07;50.00
27146;BME280;17980;51.744;7.190;2023-06-26T00:47:52;100786.39;;;36.31;51.51
27146;BME280;17980;51.744;7.190;2023-06-26T00:50:21;100784.61;;;36.67;50.94
27146;BME280;17980;51.744;7.190;2023-06-26T00:52:48;100783.31;;;36.05;52.04
27146;BME280;17980;51.744;7.190;2023-06-26T00:57:52;100781.44;;;36.80;50.53
27146;BME280;17980;51.744;7.190;2023-06-26T01:02:57;100772.34;;;36.69;50.71
27146;BME280;17980;51.744;7.190;2023-06-26T01:08:02;100767.02;;;36.76;50.59
27146;BME280;17980;51.744;7.190;2023-06-26T01:10:30;100765.43;;;35.82;52.25
27146;BME280;17980;51.744;7.190;2023-06-26T01:12:58;100761.89;;;35.99;52.09
27146;BME280;17980;51.744;7.190;2023-06-26T01:18:09;100755.39;;;36.10;52.01
27146;BME280;17980;51.744;7.190;2023-06-26T01:23:15;100751.95;;;36.22;51.62
27146;BME280;17980;51.744;7.190;2023-06-26T01:28:35;100753.71;;;36.43;51.05
27146;BME280;17980;51.744;7.190;2023-06-26T01:31:04;100750.49;;;36.35;51.29
27146;BME280;17980;51.744;7.190;2023-06-26T01:33:33;100751.87;;;36.58;50.42
27146;BME280;17980;51.744;7.190;2023-06-26T01:38:37;100736.80;;;36.80;50.06
27146;BME280;17980;51.744;7.190;2023-06-26T01:41:05;100736.73;;;36.40;50.61
27146;BME280;17980;51.744;7.190;2023-06-26T01:46:16;100724.84;;;36.27;51.24
27146;BME280;17980;51.744;7.190;2023-06-26T01:51:25;100728.24;;;36.49;50.50
27146;BME280;17980;51.744;7.190;2023-06-26T01:53:54;100728.07;;;35.52;52.61
27146;BME280;17980;51.744;7.190;2023-06-26T01:56:24;100729.44;;;35.55;52.04
27146;BME280;17980;51.744;7.190;2023-06-26T01:58:52;100724.30;;;35.79;51.55
27146;BME280;17980;51.744;7.190;2023-06-26T02:01:21;100731.29;;;34.95;53.26
27146;BME280;17980;51.744;7.190;2023-06-26T02:06:26;100726.04;;;35.78;51.31
27146;BME280;17980;51.744;7.190;2023-06-26T02:08:53;100725.83;;;35.51;51.22
27146;BME280;17980;51.744;7.190;2023-06-26T02:11:23;100728.27;;;35.16;51.90
27146;BME280;17980;51.744;7.190;2023-06-26T02:16:27;100726.95;;;35.11;51.48
27146;BME280;17980;51.744;7.190;2023-06-26T02:18:54;100724.72;;;34.53;52.65
27146;BME280;17980;51.744;7.190;2023-06-26T02:21:23;100728.55;;;34.73;52.13
27146;BME280;17980;51.744;7.190;2023-06-26T02:23:51;100730.14;;;34.82;51.76
27146;BME280;17980;51.744;7.190;2023-06-26T02:28:55;100729.72;;;35.28;50.89
27146;BME280;17980;51.744;7.190;2023-06-26T02:31:22;100724.22;;;35.96;49.14
27146;BME280;17980;51.744;7.190;2023-06-26T02:36:26;100726.47;;;35.48;50.11
27146;BME280;17980;51.744;7.190;2023-06-26T02:38:53;100731.48;;;34.98;51.67
27146;BME280;17980;51.744;7.190;2023-06-26T02:41:21;100728.01;;;35.02;50.76
27146;BME280;17980;51.744;7.190;2023-06-26T02:43:48;100729.59;;;35.47;49.68
27146;BME280;17980;51.744;7.190;2023-06-26T02:46:15;100719.99;;;35.06;50.48
27146;BME280;17980;51.744;7.190;2023-06-26T02:48:43;100716.58;;;35.82;49.03
27146;BME280;17980;51.744;7.190;2023-06-26T02:51:10;100731.59;;;34.63;51.24
27146;BME280;17980;51.744;7.190;2023-06-26T02:53:37;100738.87;;;34.03;52.37
27146;BME280;17980;51.744;7.190;2023-06-26T02:56:05;100737.66;;;33.71;52.58
27146;BME280;17980;51.744;7.190;2023-06-26T02:58:32;100734.38;;;34.65;50.66
27146;BME280;17980;51.744;7.190;2023-06-26T03:01:00;100736.45;;;34.76;49.93
27146;BME280;17980;51.744;7.190;2023-06-26T03:03:27;100734.61;;;34.69;49.82
27146;BME280;17980;51.744;7.190;2023-06-26T03:05:55;100737.92;;;35.43;48.42
27146;BME280;17980;51.744;7.190;2023-06-26T03:08:22;100739.74;;;35.50;47.66
27146;BME280;17980;51.744;7.190;2023-06-26T03:13:26;100742.61;;;35.87;46.06
27146;BME280;17980;51.744;7.190;2023-06-26T03:15:53;100744.97;;;35.82;45.66
27146;BME280;17980;51.744;7.190;2023-06-26T03:18:21;100747.98;;;35.10;46.59
27146;BME280;17980;51.744;7.190;2023-06-26T03:20:48;100744.45;;;34.88;46.94
27146;BME280;17980;51.744;7.190;2023-06-26T03:23:15;100749.14;;;34.65;47.31
27146;BME280;17980;51.744;7.190;2023-06-26T03:25:43;100755.84;;;34.86;47.03
27146;BME280;17980;51.744;7.190;2023-06-26T03:28:10;100761.50;;;35.80;45.39
27146;BME280;17980;51.744;7.190;2023-06-26T03:30:37;100757.30;;;35.64;44.91
27146;BME280;17980;51.744;7.190;2023-06-26T03:33:05;100757.08;;;35.74;44.84
27146;BME280;17980;51.744;7.190;2023-06-26T03:38:15;100763.20;;;36.49;43.54
27146;BME280;17980;51.744;7.190;2023-06-26T03:40:42;100752.61;;;36.18;44.12
27146;BME280;17980;51.744;7.190;2023-06-26T03:43:09;100763.53;;;36.02;44.51
27146;BME280;17980;51.744;7.190;2023-06-26T03:45:37;100757.38;;;36.43;43.91
27146;BME280;17980;51.744;7.190;2023-06-26T03:48:04;100766.88;;;36.05;44.56
27146;BME280;17980;51.744;7.190;2023-06-26T03:50:32;100762.11;;;35.77;44.95
27146;BME280;17980;51.744;7.190;2023-06-26T03:52:59;100758.95;;;35.14;46.29
27146;BME280;17980;51.744;7.190;2023-06-26T03:55:26;100750.37;;;35.17;46.25
27146;BME280;17980;51.744;7.190;2023-06-26T03:57:54;100754.43;;;34.99;46.25
27146;BME280;17980;51.744;7.190;2023-06-26T04:00:21;100755.86;;;35.53;45.61
27146;BME280;17980;51.744;7.190;2023-06-26T04:02:49;100758.20;;;35.37;45.66
27146;BME280;17980;51.744;7.190;2023-06-26T04:07:54;100760.91;;;35.81;45.44
27146;BME280;17980;51.744;7.190;2023-06-26T04:10:22;100765.04;;;35.61;45.59
27146;BME280;17980;51.744;7.190;2023-06-26T04:12:49;100773.42;;;35.27;45.99
27146;BME280;17980;51.744;7.190;2023-06-26T04:17:54;100780.62;;;35.75;45.23
27146;BME280;17980;51.744;7.190;2023-06-26T04:20:22;100783.51;;;35.72;45.24
27146;BME280;17980;51.744;7.190;2023-06-26T04:22:49;100780.78;;;35.56;45.26
27146;BME280;17980;51.744;7.190;2023-06-26T04:25:16;100784.49;;;35.93;44.78
27146;BME280;17980;51.744;7.190;2023-06-26T04:27:44;100792.02;;;35.72;45.09
27146;BME280;17980;51.744;7.190;2023-06-26T04:30:13;100794.33;;;35.59;45.40
27146;BME280;17980;51.744;7.190;2023-06-26T04:32:41;100793.02;;;35.79;45.46
27146;BME280;17980;51.744;7.190;2023-06-26T04:35:08;100791.39;;;35.22;46.10
27146;BME280;17980;51.744;7.190;2023-06-26T04:37:36;100792.28;;;34.92;46.60
27146;BME280;17980;51.744;7.190;2023-06-26T04:40:08;100797.48;;;34.88;46.88
27146;BME280;17980;51.744;7.190;2023-06-26T04:42:37;100806.52;;;35.04;46.63
27146;BME280;17980;51.744;7.190;2023-06-26T04:45:07;100797.41;;;35.34;46.18
27146;BME280;17980;51.744;7.190;2023-06-26T04:47:34;100808.37;;;34.47;48.05
27146;BME280;17980;51.744;7.190;2023-06-26T04:50:01;100806.19;;;35.61;46.15
27146;BME280;17980;51.744;7.190;2023-06-26T04:52:28;100807.30;;;35.37;46.27
27146;BME280;17980;51.744;7.190;2023-06-26T04:54:56;100810.88;;;35.12;47.23
27146;BME280;17980;51.744;7.190;2023-06-26T04:57:23;100806.95;;;36.14;45.58
27146;BME280;17980;51.744;7.190;2023-06-26T04:59:50;100809.41;;;36.18;45.65
27146;BME280;17980;51.744;7.190;2023-06-26T05:02:18;100812.08;;;35.64;46.61
27146;BME280;17980;51.744;7.190;2023-06-26T05:07:28;100815.23;;;35.63;46.40
27146;BME280;17980;51.744;7.190;2023-06-26T05:09:55;100807.31;;;35.74;46.38
27146;BME280;17980;51.744;7.190;2023-06-26T05:12:23;100812.55;;;34.69;48.21
27146;BME280;17980;51.744;7.190;2023-06-26T05:17:27;100804.88;;;35.95;46.39
27146;BME280;17980;51.744;7.190;2023-06-26T05:19:54;100812.33;;;36.61;45.47
27146;BME280;17980;51.744;7.190;2023-06-26T05:22:22;100814.68;;;35.75;46.54
27146;BME280;17980;51.744;7.190;2023-06-26T05:24:51;100813.66;;;36.75;45.33
27146;BME280;17980;51.744;7.190;2023-06-26T05:27:21;100824.97;;;36.10;46.50
27146;BME280;17980;51.744;7.190;2023-06-26T05:29:50;100831.88;;;36.29;46.52
27146;BME280;17980;51.744;7.190;2023-06-26T05:32:18;100828.70;;;36.08;47.13
27146;BME280;17980;51.744;7.190;2023-06-26T05:34:47;100826.48;;;35.79;47.68
27146;BME280;17980;51.744;7.190;2023-06-26T05:40:01;100839.26;;;35.79;47.64
27146;BME280;17980;51.744;7.190;2023-06-26T05:42:31;100849.78;;;36.29;46.97
27146;BME280;17980;51.744;7.190;2023-06-26T05:44:58;100847.97;;;35.58;48.33
27146;BME280;17980;51.744;7.190;2023-06-26T05:50:05;100861.93;;;36.78;46.46
27146;BME280;17980;51.744;7.190;2023-06-26T05:52:34;100864.67;;;37.83;44.68
27146;BME280;17980;51.744;7.190;2023-06-26T05:57:41;100854.14;;;36.49;46.13
27146;BME280;17980;51.744;7.190;2023-06-26T06:00:11;100856.25;;;35.96;47.10
27146;BME280;17980;51.744;7.190;2023-06-26T06:02:38;100863.02;;;35.97;47.00
27146;BME280;17980;51.744;7.190;2023-06-26T06:05:07;100864.31;;;35.91;46.94
27146;BME280;17980;51.744;7.190;2023-06-26T06:07:35;100866.28;;;35.51;47.67
27146;BME280;17980;51.744;7.190;2023-06-26T06:10:04;100875.52;;;35.57;47.55
27146;BME280;17980;51.744;7.190;2023-06-26T06:12:31;100877.86;;;35.66;47.26
27146;BME280;17980;51.744;7.190;2023-06-26T06:17:36;100871.63;;;36.17;46.62
27146;BME280;17980;51.744;7.190;2023-06-26T06:20:04;100871.34;;;36.98;45.34
27146;BME280;17980;51.744;7.190;2023-06-26T06:22:32;100870.47;;;36.07;46.19
27146;BME280;17980;51.744;7.190;2023-06-26T06:27:36;100888.08;;;34.93;48.52
27146;BME280;17980;51.744;7.190;2023-06-26T06:30:05;100883.83;;;35.81;46.78
27146;BME280;17980;51.744;7.190;2023-06-26T06:32:33;100884.77;;;35.35;47.93
27146;BME280;17980;51.744;7.190;2023-06-26T06:35:00;100886.66;;;35.54;47.30
27146;BME280;17980;51.744;7.190;2023-06-26T06:40:08;100894.44;;;37.97;43.98
27146;BME280;17980;51.744;7.190;2023-06-26T06:42:36;100891.41;;;36.70;45.40
27146;BME280;17980;51.744;7.190;2023-06-26T06:45:04;100891.19;;;36.33;46.00
27146;BME280;17980;51.744;7.190;2023-06-26T06:47:32;100897.79;;;35.92;46.71
27146;BME280;17980;51.744;7.190;2023-06-26T06:50:00;100905.60;;;36.36;45.29
27146;BME280;17980;51.744;7.190;2023-06-26T06:52:29;100915.05;;;36.91;44.63
27146;BME280;17980;51.744;7.190;2023-06-26T06:54:58;100939.25;;;38.84;42.17
27146;BME280;17980;51.744;7.190;2023-06-26T07:00:04;100952.72;;;40.02;41.83
27146;BME280;17980;51.744;7.190;2023-06-26T07:02:31;100943.62;;;39.32;40.54
27146;BME280;17980;51.744;7.190;2023-06-26T07:04:59;100952.12;;;42.28;38.95
27146;BME280;17980;51.744;7.190;2023-06-26T07:07:29;100962.03;;;43.06;37.41
27146;BME280;17980;51.744;7.190;2023-06-26T07:09:58;100961.81;;;39.81;40.93
27146;BME280;17980;51.744;7.190;2023-06-26T07:12:25;100956.67;;;38.21;42.93
27146;BME280;17980;51.744;7.190;2023-06-26T07:17:30;100960.28;;;41.25;40.01
27146;BME280;17980;51.744;7.190;2023-06-26T07:19:57;100957.91;;;37.49;44.50
27146;BME280;17980;51.744;7.190;2023-06-26T07:22:24;100956.78;;;37.38;44.31
27146;BME280;17980;51.744;7.190;2023-06-26T07:24:51;100962.36;;;39.50;41.41
27146;BME280;17980;51.744;7.190;2023-06-26T07:27:19;100966.30;;;37.85;44.01
27146;BME280;17980;51.744;7.190;2023-06-26T07:29:46;100968.16;;;36.70;46.04
27146;BME280;17980;51.744;7.190;2023-06-26T07:32:14;100967.21;;;37.52;44.31
27146;BME280;17980;51.744;7.190;2023-06-26T07:34:41;100966.20;;;36.68;45.91
27146;BME280;17980;51.744;7.190;2023-06-26T07:37:08;100967.08;;;40.66;40.88
27146;BME280;17980;51.744;7.190;2023-06-26T07:39:36;100964.58;;;41.77;39.63
27146;BME280;17980;51.744;7.190;2023-06-26T07:42:03;100976.44;;;44.73;36.77
27146;BME280;17980;51.744;7.190;2023-06-26T07:44:31;100973.11;;;41.00;39.30
27146;BME280;17980;51.744;7.190;2023-06-26T07:46:58;100978.50;;;44.37;35.71
27146;BME280;17980;51.744;7.190;2023-06-26T07:52:03;100980.47;;;43.21;37.13
27146;BME280;17980;51.744;7.190;2023-06-26T07:54:30;100974.39;;;40.75;39.71
27146;BME280;17980;51.744;7.190;2023-06-26T07:56:59;100974.27;;;42.62;38.19
27146;BME280;17980;51.744;7.190;2023-06-26T07:59:28;100982.39;;;41.37;38.69
27146;BME280;17980;51.744;7.190;2023-06-26T08:01:57;100989.41;;;42.04;37.92
27146;BME280;17980;51.744;7.190;2023-06-26T08:04:26;100995.36;;;40.37;39.53
27146;BME280;17980;51.744;7.190;2023-06-26T08:06:55;100997.02;;;41.62;39.45
27146;BME280;17980;51.744;7.190;2023-06-26T08:09:24;100999.97;;;40.30;39.67
27146;BME280;17980;51.744;7.190;2023-06-26T08:11:52;101004.44;;;38.24;42.35
27146;BME280;17980;51.744;7.190;2023-06-26T08:14:20;101002.66;;;41.32;38.95
27146;BME280;17980;51.744;7.190;2023-06-26T08:19:24;101007.20;;;41.91;38.17
27146;BME280;17980;51.744;7.190;2023-06-26T08:21:52;101011.45;;;40.06;40.26
27146;BME280;17980;51.744;7.190;2023-06-26T08:26:56;101018.76;;;39.12;41.38
27146;BME280;17980;51.744;7.190;2023-06-26T08:29:23;101022.83;;;38.76;41.88
27146;BME280;17980;51.744;7.190;2023-06-26T08:31:50;101024.98;;;38.97;42.35
27146;BME280;17980;51.744;7.190;2023-06-26T08:34:18;101024.98;;;38.97;42.35
27146;BME280;17980;51.744;7.190;2023-06-26T08:36:45;101020.94;;;40.64;40.38
27146;BME280;17980;51.744;7.190;2023-06-26T08:39:12;101021.41;;;42.37;38.66
27146;BME280;17980;51.744;7.190;2023-06-26T08:41:40;101017.86;;;40.69;39.88
27146;BME280;17980;51.744;7.190;2023-06-26T08:44:07;101027.10;;;40.00;41.02
27146;BME280;17980;51.744;7.190;2023-06-26T08:46:34;101037.14;;;42.61;37.88
27146;BME280;17980;51.744;7.190;2023-06-26T08:51:44;101048.16;;;34.60;47.40
27146;BME280;17980;51.744;7.190;2023-06-26T08:54:14;101048.16;;;34.60;47.40
27146;BME280;17980;51.744;7.190;2023-06-26T08:56:44;101044.45;;;37.14;43.32
27146;BME280;17980;51.744;7.190;2023-06-26T08:59:13;101049.96;;;38.07;42.35
27146;BME280;17980;51.744;7.190;2023-06-26T09:01:41;101052.72;;;37.24;42.67
27146;BME280;17980;51.744;7.190;2023-06-26T09:04:09;101054.66;;;38.32;41.47
27146;BME280;17980;51.744;7.190;2023-06-26T09:09:13;101058.69;;;41.26;37.50
27146;BME280;17980;51.744;7.190;2023-06-26T09:11:41;101056.91;;;37.61;41.29
27146;BME280;17980;51.744;7.190;2023-06-26T09:14:09;101066.84;;;39.34;39.74
27146;BME280;17980;51.744;7.190;2023-06-26T09:16:40;101063.49;;;44.60;34.70
27146;BME280;17980;51.744;7.190;2023-06-26T09:19:10;101074.28;;;43.83;34.28
27146;BME280;17980;51.744;7.190;2023-06-26T09:24:16;101067.11;;;41.77;36.56
27146;BME280;17980;51.744;7.190;2023-06-26T09:26:44;101075.03;;;37.65;40.27
27146;BME280;17980;51.744;7.190;2023-06-26T09:29:11;101075.95;;;37.17;41.86
27146;BME280;17980;51.744;7.190;2023-06-26T09:31:40;101070.16;;;37.09;40.56
27146;BME280;17980;51.744;7.190;2023-06-26T09:34:09;101076.91;;;38.79;38.63
27146;BME280;17980;51.744;7.190;2023-06-26T09:36:37;101079.18;;;41.83;36.48
27146;BME280;17980;51.744;7.190;2023-06-26T09:39:06;101090.13;;;44.31;33.97
27146;BME280;17980;51.744;7.190;2023-06-26T09:41:36;101083.81;;;47.39;30.71
27146;BME280;17980;51.744;7.190;2023-06-26T09:44:06;101096.48;;;43.99;32.90
27146;BME280;17980;51.744;7.190;2023-06-26T09:46:34;101089.27;;;42.63;34.54
27146;BME280;17980;51.744;7.190;2023-06-26T09:51:43;101083.12;;;43.53;33.55
27146;BME280;17980;51.744;7.190;2023-06-26T09:54:15;101084.00;;;45.53;31.33
27146;BME280;17980;51.744;7.190;2023-06-26T09:56:41;101086.64;;;43.40;32.72
27146;BME280;17980;51.744;7.190;2023-06-26T09:59:09;101101.39;;;44.46;31.90
27146;BME280;17980;51.744;7.190;2023-06-26T10:04:16;101096.46;;;43.04;32.73
27146;BME280;17980;51.744;7.190;2023-06-26T10:09:23;101101.54;;;43.96;32.09
27146;BME280;17980;51.744;7.190;2023-06-26T10:11:55;101088.63;;;41.50;34.49
27146;BME280;17980;51.744;7.190;2023-06-26T10:17:04;101098.44;;;44.11;32.46
27146;BME280;17980;51.744;7.190;2023-06-26T10:19:34;101107.34;;;44.06;32.43
27146;BME280;17980;51.744;7.190;2023-06-26T10:22:02;101094.70;;;43.56;32.63
27146;BME280;17980;51.744;7.190;2023-06-26T10:27:13;101102.13;;;41.95;33.43
27146;BME280;17980;51.744;7.190;2023-06-26T10:29:42;101108.84;;;42.30;33.21
27146;BME280;17980;51.744;7.190;2023-06-26T10:32:11;101103.09;;;39.59;35.38
27146;BME280;17980;51.744;7.190;2023-06-26T10:34:40;101096.50;;;40.84;34.36
27146;BME280;17980;51.744;7.190;2023-06-26T10:39:47;101092.77;;;39.00;35.85
27146;BME280;17980;51.744;7.190;2023-06-26T10:42:16;101105.52;;;38.07;36.54
27146;BME280;17980;51.744;7.190;2023-06-26T10:44:45;101110.02;;;36.28;37.08
27146;BME280;17980;51.744;7.190;2023-06-26T10:47:19;101108.86;;;36.84;37.12
27146;BME280;17980;51.744;7.190;2023-06-26T10:52:21;101104.84;;;38.21;36.65
27146;BME280;17980;51.744;7.190;2023-06-26T10:54:48;101110.59;;;35.85;39.27
27146;BME280;17980;51.744;7.190;2023-06-26T11:00:18;101128.58;;;35.78;40.25
27146;BME280;17980;51.744;7.190;2023-06-26T11:02:49;101125.45;;;35.25;40.27
27146;BME280;17980;51.744;7.190;2023-06-26T11:05:28;101126.27;;;36.41;39.30
27146;BME280;17980;51.744;7.190;2023-06-26T11:08:07;101124.53;;;37.07;39.26
27146;BME280;17980;51.744;7.190;2023-06-26T11:10:52;101127.06;;;38.71;36.98
27146;BME280;17980;51.744;7.190;2023-06-26T11:13:20;101127.06;;;38.71;36.98
27146;BME280;17980;51.744;7.190;2023-06-26T11:15:47;101136.52;;;37.18;38.83
27146;BME280;17980;51.744;7.190;2023-06-26T11:20:52;101142.20;;;37.07;38.72
27146;BME280;17980;51.744;7.190;2023-06-26T11:23:22;101139.16;;;37.51;38.28
27146;BME280;17980;51.744;7.190;2023-06-26T11:28:27;101139.38;;;36.40;38.42
27146;BME280;17980;51.744;7.190;2023-06-26T11:30:54;101144.02;;;37.84;37.29
27146;BME280;17980;51.744;7.190;2023-06-26T11:33:26;101141.96;;;36.80;38.03
27146;BME280;17980;51.744;7.190;2023-06-26T11:35:53;101136.95;;;35.53;39.25
27146;BME280;17980;51.744;7.190;2023-06-26T11:38:21;101143.36;;;37.87;38.04
27146;BME280;17980;51.744;7.190;2023-06-26T11:40:49;101153.08;;;37.75;37.72
27146;BME280;17980;51.744;7.190;2023-06-26T11:45:54;101167.80;;;35.93;38.14
27146;BME280;17980;51.744;7.190;2023-06-26T11:48:22;101154.22;;;36.20;37.67
27146;BME280;17980;51.744;7.190;2023-06-26T11:53:28;101147.89;;;36.81;37.66
27146;BME280;17980;51.744;7.190;2023-06-26T11:55:56;101161.20;;;37.68;37.10
27146;BME280;17980;51.744;7.190;2023-06-26T11:58:24;101153.36;;;36.36;38.84
27146;BME280;17980;51.744;7.190;2023-06-26T12:03:29;101182.64;;;35.35;38.28
27146;BME280;17980;51.744;7.190;2023-06-26T12:05:57;101180.59;;;35.93;37.31
27146;BME280;17980;51.744;7.190;2023-06-26T12:08:25;101181.62;;;36.99;36.63
27146;BME280;17980;51.744;7.190;2023-06-26T12:10:52;101177.25;;;36.77;36.71
27146;BME280;17980;51.744;7.190;2023-06-26T12:13:20;101174.95;;;35.71;36.32
27146;BME280;17980;51.744;7.190;2023-06-26T12:15:47;101192.84;;;35.36;36.49
27146;BME280;17980;51.744;7.190;2023-06-26T12:18:15;101191.52;;;36.32;34.59
27146;BME280;17980;51.744;7.190;2023-06-26T12:20:42;101188.85;;;36.66;33.98
27146;BME280;17980;51.744;7.190;2023-06-26T12:23:13;101188.85;;;36.66;33.98
27146;BME280;17980;51.744;7.190;2023-06-26T12:25:40;101183.48;;;36.65;34.79
27146;BME280;17980;51.744;7.190;2023-06-26T12:28:17;101195.15;;;38.01;34.00
27146;BME280;17980;51.744;7.190;2023-06-26T12:30:47;101197.06;;;37.46;35.03
27146;BME280;17980;51.744;7.190;2023-06-26T12:33:16;101195.78;;;36.74;35.58
27146;BME280;17980;51.744;7.190;2023-06-26T12:35:43;101210.23;;;36.33;35.91
27146;BME280;17980;51.744;7.190;2023-06-26T12:38:12;101214.98;;;38.15;33.55
27146;BME280;17980;51.744;7.190;2023-06-26T12:40:46;101217.77;;;38.49;32.76
27146;BME280;17980;51.744;7.190;2023-06-26T12:43:23;101212.81;;;35.99;35.01
27146;BME280;17980;51.744;7.190;2023-06-26T12:45:55;101213.05;;;35.29;36.52
27146;BME280;17980;51.744;7.190;2023-06-26T12:48:22;101228.52;;;34.99;36.19
27146;BME280;17980;51.744;7.190;2023-06-26T12:50:51;101225.95;;;36.12;35.23
27146;BME280;17980;51.744;7.190;2023-06-26T12:53:20;101232.06;;;35.50;35.58
27146;BME280;17980;51.744;7.190;2023-06-26T12:55:47;101224.12;;;35.31;35.43
27146;BME280;17980;51.744;7.190;2023-06-26T12:58:14;101220.52;;;38.63;32.99
27146;BME280;17980;51.744;7.190;2023-06-26T13:00:42;101225.28;;;37.31;33.67
27146;BME280;17980;51.744;7.190;2023-06-26T13:03:10;101225.28;;;37.31;33.67
27146;BME280;17980;51.744;7.190;2023-06-26T13:05:37;101236.31;;;36.66;33.77
27146;BME280;17980;51.744;7.190;2023-06-26T13:08:05;101231.08;;;36.12;34.16
27146;BME280;17980;51.744;7.190;2023-06-26T13:10:33;101216.51;;;37.30;34.16
27146;BME280;17980;51.744;7.190;2023-06-26T13:13:02;101214.34;;;35.59;36.64
27146;BME280;17980;51.744;7.190;2023-06-26T13:15:29;101214.34;;;35.59;36.64
27146;BME280;17980;51.744;7.190;2023-06-26T13:17:56;101231.00;;;36.76;35.52
27146;BME280;17980;51.744;7.190;2023-06-26T13:20:24;101230.02;;;36.55;35.23
27146;BME280;17980;51.744;7.190;2023-06-26T13:22:51;101230.02;;;36.55;35.23
27146;BME280;17980;51.744;7.190;2023-06-26T13:25:20;101232.10;;;36.77;35.26
27146;BME280;17980;51.744;7.190;2023-06-26T13:30:24;101222.09;;;36.82;34.35
27146;BME280;17980;51.744;7.190;2023-06-26T13:32:52;101232.18;;;36.75;34.35
27146;BME280;17980;51.744;7.190;2023-06-26T13:35:19;101231.94;;;36.87;33.36
27146;BME280;17980;51.744;7.190;2023-06-26T13:37:46;101231.94;;;36.87;33.36
27146;BME280;17980;51.744;7.190;2023-06-26T13:40:14;101240.52;;;36.99;34.40
27146;BME280;17980;51.744;7.190;2023-06-26T13:45:25;101247.77;;;36.91;34.16
27146;BME280;17980;51.744;7.190;2023-06-26T13:47:53;101238.05;;;35.65;34.90
27146;BME280;17980;51.744;7.190;2023-06-26T13:50:20;101245.25;;;34.47;35.80
27146;BME280;17980;51.744;7.190;2023-06-26T13:52:47;101252.48;;;35.31;35.32
27146;BME280;17980;51.744;7.190;2023-06-26T13:55:17;101257.58;;;34.59;35.76
27146;BME280;17980;51.744;7.190;2023-06-26T14:00:22;101258.56;;;35.98;34.60
27146;BME280;17980;51.744;7.190;2023-06-26T14:02:49;101253.60;;;36.97;33.30
27146;BME280;17980;51.744;7.190;2023-06-26T14:05:17;101263.01;;;35.68;33.91
27146;BME280;17980;51.744;7.190;2023-06-26T14:10:23;101257.41;;;34.74;34.17
27146;BME280;17980;51.744;7.190;2023-06-26T14:12:50;101255.23;;;34.39;34.32
27146;BME280;17980;51.744;7.190;2023-06-26T14:15:18;101261.61;;;35.47;33.44
27146;BME280;17980;51.744;7.190;2023-06-26T14:20:22;101260.73;;;34.84;33.74
27146;BME280;17980;51.744;7.190;2023-06-26T14:22:50;101268.00;;;36.45;32.92
27146;BME280;17980;51.744;7.190;2023-06-26T14:25:17;101270.30;;;36.10;32.90
27146;BME280;17980;51.744;7.190;2023-06-26T14:27:44;101264.02;;;35.75;33.04
27146;BME280;17980;51.744;7.190;2023-06-26T14:30:13;101264.97;;;35.51;33.42
27146;BME280;17980;51.744;7.190;2023-06-26T14:35:17;101254.88;;;35.81;32.23
27146;BME280;17980;51.744;7.190;2023-06-26T14:40:21;101257.20;;;35.76;32.80
27146;BME280;17980;51.744;7.190;2023-06-26T14:42:49;101270.36;;;37.27;31.70
27146;BME280;17980;51.744;7.190;2023-06-26T14:45:16;101270.10;;;35.88;32.18
27146;BME280;17980;51.744;7.190;2023-06-26T14:50:20;101269.38;;;34.95;33.29
27146;BME280;17980;51.744;7.190;2023-06-26T14:52:47;101268.08;;;34.29;33.53
27146;BME280;17980;51.744;7.190;2023-06-26T14:55:15;101271.70;;;36.60;32.17
27146;BME280;17980;51.744;7.190;2023-06-26T14:57:43;101273.25;;;35.67;33.02
27146;BME280;17980;51.744;7.190;2023-06-26T15:00:13;101261.66;;;37.20;31.34
27146;BME280;17980;51.744;7.190;2023-06-26T15:02:41;101274.23;;;36.75;31.37
27146;BME280;17980;51.744;7.190;2023-06-26T15:07:46;101284.05;;;35.65;32.67
27146;BME280;17980;51.744;7.190;2023-06-26T15:10:13;101277.77;;;35.49;33.54
27146;BME280;17980;51.744;7.190;2023-06-26T15:12:40;101265.04;;;34.52;34.38
27146;BME280;17980;51.744;7.190;2023-06-26T15:15:10;101277.95;;;34.63;34.37
27146;BME280;17980;51.744;7.190;2023-06-26T15:17:37;101276.77;;;34.67;33.91
27146;BME280;17980;51.744;7.190;2023-06-26T15:20:07;101272.77;;;35.19;33.68
27146;BME280;17980;51.744;7.190;2023-06-26T15:25:11;101280.41;;;34.97;34.76
27146;BME280;17980;51.744;7.190;2023-06-26T15:30:15;101278.38;;;34.73;34.58
27146;BME280;17980;51.744;7.190;2023-06-26T15:32:43;101281.86;;;34.94;33.88
27146;BME280;17980;51.744;7.190;2023-06-26T15:37:47;101285.50;;;35.22;33.89
27146;BME280;17980;51.744;7.190;2023-06-26T15:40:16;101272.14;;;34.76;34.34
27146;BME280;17980;51.744;7.190;2023-06-26T15:42:47;101283.75;;;34.16;35.59
27146;BME280;17980;51.744;7.190;2023-06-26T15:45:14;101293.17;;;34.06;35.37
27146;BME280;17980;51.744;7.190;2023-06-26T15:47:44;101293.80;;;33.98;35.02